sensor_id;sensor_type;location;lat;lon;timestamp;P1;durP1;ratioP1;P2;durP2;ratioP2
68910;SDS011;55953;51.650;-0.522;2023-02-22T00:01:55;36.30;;;17.40;;
68910;SDS011;55953;51.650;-0.522;2023-02-22T00:04:40;38.90;;;17.10;;
68910;SDS011;55953;51.650;-0.522;2023-02-22T00:07:08;35.90;;;16.90;;
68910;SDS011;55953;51.650;-0.522;2023-02-22T00:09:36;35.40;;;16.70;;
68910;SDS011;55953;51.650;-0.522;2023-02-22T00:12:04;36.70;;;17.10;;
68910;SDS011;55953;51.650;-0.522;2023-02-22T00:14:32;38.80;;;17.80;;
68910;SDS011;55953;51.650;-0.522;2023-02-22T00:17:00;37.60;;;17.40;;
68910;SDS011;55953;51.650;-0.522;2023-02-22T00:19:29;38.10;;;18.30;;
68910;SDS011;55953;51.650;-0.522;2023-02-22T00:21:57;39.60;;;18.70;;
68910;SDS011;55953;51.650;-0.522;2023-02-22T00:24:26;39.60;;;18.80;;
68910;SDS011;55953;51.650;-0.522;2023-02-22T00:26:56;36.90;;;18.10;;
68910;SDS011;55953;51.650;-0.522;2023-02-22T00:29:24;40.50;;;19.20;;
68910;SDS011;55953;51.650;-0.522;2023-02-22T00:31:52;38.70;;;18.30;;
68910;SDS011;55953;51.650;-0.522;2023-02-22T00:34:21;41.90;;;19.20;;
68910;SDS011;55953;51.650;-0.522;2023-02-22T00:36:50;46.00;;;20.10;;
68910;SDS011;55953;51.650;-0.522;2023-02-22T00:39:18;45.80;;;20.70;;
68910;SDS011;55953;51.650;-0.522;2023-02-22T00:41:46;43.30;;;20.00;;
68910;SDS011;55953;51.650;-0.522;2023-02-22T00:44:16;42.60;;;20.00;;
68910;SDS011;55953;51.650;-0.522;2023-02-22T00:46:44;44.50;;;20.10;;
68910;SDS011;55953;51.650;-0.522;2023-02-22T00:49:15;39.50;;;19.10;;
68910;SDS011;55953;51.650;-0.522;2023-02-22T00:51:43;41.00;;;19.60;;
68910;SDS011;55953;51.650;-0.522;2023-02-22T00:54:11;39.20;;;19.50;;
68910;SDS011;55953;51.650;-0.522;2023-02-22T00:56:41;44.30;;;19.90;;
68910;SDS011;55953;51.650;-0.522;2023-02-22T00:59:09;45.10;;;20.50;;
68910;SDS011;55953;51.650;-0.522;2023-02-22T01:01:37;44.20;;;19.40;;
68910;SDS011;55953;51.650;-0.522;2023-02-22T01:04:05;43.40;;;20.20;;
68910;SDS011;55953;51.650;-0.522;2023-02-22T01:06:33;42.30;;;20.10;;
68910;SDS011;55953;51.650;-0.522;2023-02-22T01:09:02;44.90;;;20.10;;
68910;SDS011;55953;51.650;-0.522;2023-02-22T01:11:31;43.60;;;19.70;;
68910;SDS011;55953;51.650;-0.522;2023-02-22T01:14:00;46.70;;;20.50;;
68910;SDS011;55953;51.650;-0.522;2023-02-22T01:16:28;45.30;;;20.50;;
68910;SDS011;55953;51.650;-0.522;2023-02-22T01:18:56;43.10;;;19.40;;
68910;SDS011;55953;51.650;-0.522;2023-02-22T01:21:24;42.80;;;20.30;;
68910;SDS011;55953;51.650;-0.522;2023-02-22T01:23:54;43.80;;;19.50;;
68910;SDS011;55953;51.650;-0.522;2023-02-22T01:26:22;45.20;;;21.30;;
68910;SDS011;55953;51.650;-0.522;2023-02-22T01:28:50;45.00;;;20.80;;
68910;SDS011;55953;51.650;-0.522;2023-02-22T01:31:18;45.40;;;20.40;;
68910;SDS011;55953;51.650;-0.522;2023-02-22T01:33:46;52.10;;;22.80;;
68910;SDS011;55953;51.650;-0.522;2023-02-22T01:36:14;47.00;;;22.30;;
68910;SDS011;55953;51.650;-0.522;2023-02-22T01:38:43;48.10;;;22.70;;
68910;SDS011;55953;51.650;-0.522;2023-02-22T01:41:12;47.90;;;21.90;;
68910;SDS011;55953;51.650;-0.522;2023-02-22T01:43:40;56.50;;;23.60;;
68910;SDS011;55953;51.650;-0.522;2023-02-22T01:46:22;48.20;;;21.80;;
68910;SDS011;55953;51.650;-0.522;2023-02-22T01:51:30;49.00;;;21.40;;
68910;SDS011;55953;51.650;-0.522;2023-02-22T01:54:27;50.10;;;22.60;;
68910;SDS011;55953;51.650;-0.522;2023-02-22T02:00:00;49.20;;;22.00;;
68910;SDS011;55953;51.650;-0.522;2023-02-22T02:02:43;55.00;;;22.60;;
68910;SDS011;55953;51.650;-0.522;2023-02-22T02:05:18;55.20;;;22.30;;
68910;SDS011;55953;51.650;-0.522;2023-02-22T02:07:46;47.60;;;22.10;;
68910;SDS011;55953;51.650;-0.522;2023-02-22T02:10:16;54.20;;;24.10;;
68910;SDS011;55953;51.650;-0.522;2023-02-22T02:12:47;51.40;;;22.00;;
68910;SDS011;55953;51.650;-0.522;2023-02-22T02:15:28;53.30;;;23.10;;
68910;SDS011;55953;51.650;-0.522;2023-02-22T02:18:05;55.90;;;23.70;;
68910;SDS011;55953;51.650;-0.522;2023-02-22T02:26:30;59.00;;;23.80;;
68910;SDS011;55953;51.650;-0.522;2023-02-22T02:35:43;56.70;;;23.20;;
68910;SDS011;55953;51.650;-0.522;2023-02-22T02:38:38;61.40;;;24.90;;
68910;SDS011;55953;51.650;-0.522;2023-02-22T02:41:20;56.00;;;23.40;;
68910;SDS011;55953;51.650;-0.522;2023-02-22T02:46:50;57.70;;;24.30;;
68910;SDS011;55953;51.650;-0.522;2023-02-22T02:52:26;55.30;;;24.00;;
68910;SDS011;55953;51.650;-0.522;2023-02-22T02:54:56;59.90;;;24.50;;
68910;SDS011;55953;51.650;-0.522;2023-02-22T02:57:25;59.80;;;24.40;;
68910;SDS011;55953;51.650;-0.522;2023-02-22T02:59:52;58.40;;;25.20;;
68910;SDS011;55953;51.650;-0.522;2023-02-22T03:05:28;57.40;;;23.60;;
68910;SDS011;55953;51.650;-0.522;2023-02-22T03:08:31;59.00;;;26.00;;
68910;SDS011;55953;51.650;-0.522;2023-02-22T03:11:33;57.10;;;24.00;;
68910;SDS011;55953;51.650;-0.522;2023-02-22T03:17:06;58.70;;;23.10;;
68910;SDS011;55953;51.650;-0.522;2023-02-22T03:19:58;63.70;;;26.60;;
68910;SDS011;55953;51.650;-0.522;2023-02-22T03:22:46;66.00;;;26.30;;
68910;SDS011;55953;51.650;-0.522;2023-02-22T03:25:24;62.10;;;24.90;;
68910;SDS011;55953;51.650;-0.522;2023-02-22T03:28:06;56.20;;;23.70;;
68910;SDS011;55953;51.650;-0.522;2023-02-22T03:30:44;61.30;;;25.50;;
68910;SDS011;55953;51.650;-0.522;2023-02-22T03:33:22;64.90;;;26.30;;
68910;SDS011;55953;51.650;-0.522;2023-02-22T03:36:25;61.30;;;26.20;;
68910;SDS011;55953;51.650;-0.522;2023-02-22T03:38:57;62.70;;;24.70;;
68910;SDS011;55953;51.650;-0.522;2023-02-22T03:41:28;61.00;;;25.90;;
68910;SDS011;55953;51.650;-0.522;2023-02-22T03:44:06;62.40;;;25.30;;
68910;SDS011;55953;51.650;-0.522;2023-02-22T03:46:39;65.90;;;25.10;;
68910;SDS011;55953;51.650;-0.522;2023-02-22T03:49:29;59.80;;;24.70;;
68910;SDS011;55953;51.650;-0.522;2023-02-22T03:52:03;60.40;;;25.00;;
68910;SDS011;55953;51.650;-0.522;2023-02-22T03:54:32;63.60;;;28.30;;
68910;SDS011;55953;51.650;-0.522;2023-02-22T03:57:16;64.10;;;26.50;;
68910;SDS011;55953;51.650;-0.522;2023-02-22T04:00:03;66.80;;;26.60;;
68910;SDS011;55953;51.650;-0.522;2023-02-22T04:02:40;65.20;;;26.10;;
68910;SDS011;55953;51.650;-0.522;2023-02-22T04:05:09;64.40;;;25.70;;
68910;SDS011;55953;51.650;-0.522;2023-02-22T04:07:37;63.40;;;25.50;;
68910;SDS011;55953;51.650;-0.522;2023-02-22T04:10:06;66.20;;;26.40;;
68910;SDS011;55953;51.650;-0.522;2023-02-22T04:12:38;70.30;;;27.00;;
68910;SDS011;55953;51.650;-0.522;2023-02-22T04:15:08;66.50;;;25.70;;
68910;SDS011;55953;51.650;-0.522;2023-02-22T04:17:38;72.60;;;28.30;;
68910;SDS011;55953;51.650;-0.522;2023-02-22T04:20:09;68.80;;;26.80;;
68910;SDS011;55953;51.650;-0.522;2023-02-22T04:22:44;72.50;;;27.10;;
68910;SDS011;55953;51.650;-0.522;2023-02-22T04:25:14;72.50;;;27.00;;
68910;SDS011;55953;51.650;-0.522;2023-02-22T04:27:43;69.30;;;25.70;;
68910;SDS011;55953;51.650;-0.522;2023-02-22T04:30:11;68.70;;;24.90;;
68910;SDS011;55953;51.650;-0.522;2023-02-22T04:32:40;70.10;;;26.10;;
68910;SDS011;55953;51.650;-0.522;2023-02-22T04:35:08;72.40;;;26.10;;
68910;SDS011;55953;51.650;-0.522;2023-02-22T04:37:36;70.30;;;26.40;;
68910;SDS011;55953;51.650;-0.522;2023-02-22T04:40:06;72.90;;;27.30;;
68910;SDS011;55953;51.650;-0.522;2023-02-22T04:42:36;70.80;;;26.60;;
68910;SDS011;55953;51.650;-0.522;2023-02-22T04:45:07;74.20;;;26.90;;
68910;SDS011;55953;51.650;-0.522;2023-02-22T04:47:36;76.00;;;27.90;;
68910;SDS011;55953;51.650;-0.522;2023-02-22T04:50:06;73.50;;;28.30;;
68910;SDS011;55953;51.650;-0.522;2023-02-22T04:52:36;75.10;;;27.80;;
68910;SDS011;55953;51.650;-0.522;2023-02-22T04:55:05;69.80;;;25.60;;
68910;SDS011;55953;51.650;-0.522;2023-02-22T04:57:35;76.40;;;28.50;;
68910;SDS011;55953;51.650;-0.522;2023-02-22T05:00:04;77.30;;;26.60;;
68910;SDS011;55953;51.650;-0.522;2023-02-22T05:02:33;74.50;;;26.70;;
68910;SDS011;55953;51.650;-0.522;2023-02-22T05:05:01;71.10;;;26.50;;
68910;SDS011;55953;51.650;-0.522;2023-02-22T05:07:29;76.50;;;27.90;;
68910;SDS011;55953;51.650;-0.522;2023-02-22T05:09:57;77.00;;;28.70;;
68910;SDS011;55953;51.650;-0.522;2023-02-22T05:12:26;75.80;;;27.10;;
68910;SDS011;55953;51.650;-0.522;2023-02-22T05:14:54;78.50;;;27.60;;
68910;SDS011;55953;51.650;-0.522;2023-02-22T05:17:22;78.00;;;26.50;;
68910;SDS011;55953;51.650;-0.522;2023-02-22T05:19:50;73.10;;;25.70;;
68910;SDS011;55953;51.650;-0.522;2023-02-22T05:22:17;73.80;;;26.40;;
68910;SDS011;55953;51.650;-0.522;2023-02-22T05:24:45;76.50;;;27.80;;
68910;SDS011;55953;51.650;-0.522;2023-02-22T05:27:13;75.00;;;27.30;;
68910;SDS011;55953;51.650;-0.522;2023-02-22T05:29:41;74.70;;;28.30;;
68910;SDS011;55953;51.650;-0.522;2023-02-22T05:32:09;77.10;;;26.50;;
68910;SDS011;55953;51.650;-0.522;2023-02-22T05:34:39;71.60;;;25.40;;
68910;SDS011;55953;51.650;-0.522;2023-02-22T05:37:07;73.90;;;26.60;;
68910;SDS011;55953;51.650;-0.522;2023-02-22T05:39:34;73.60;;;27.50;;
68910;SDS011;55953;51.650;-0.522;2023-02-22T05:42:02;76.50;;;27.80;;
68910;SDS011;55953;51.650;-0.522;2023-02-22T05:44:30;76.80;;;27.10;;
68910;SDS011;55953;51.650;-0.522;2023-02-22T05:46:58;74.90;;;26.80;;
68910;SDS011;55953;51.650;-0.522;2023-02-22T05:49:26;82.40;;;28.90;;
68910;SDS011;55953;51.650;-0.522;2023-02-22T05:51:54;72.60;;;27.00;;
68910;SDS011;55953;51.650;-0.522;2023-02-22T05:54:25;75.20;;;26.50;;
68910;SDS011;55953;51.650;-0.522;2023-02-22T05:56:53;79.50;;;26.70;;
68910;SDS011;55953;51.650;-0.522;2023-02-22T05:59:21;76.50;;;27.70;;
68910;SDS011;55953;51.650;-0.522;2023-02-22T06:01:49;81.40;;;27.40;;
68910;SDS011;55953;51.650;-0.522;2023-02-22T06:04:17;77.20;;;26.40;;
68910;SDS011;55953;51.650;-0.522;2023-02-22T06:06:45;74.60;;;26.40;;
68910;SDS011;55953;51.650;-0.522;2023-02-22T06:09:12;79.10;;;26.80;;
68910;SDS011;55953;51.650;-0.522;2023-02-22T06:11:40;77.10;;;27.70;;
68910;SDS011;55953;51.650;-0.522;2023-02-22T06:14:08;82.50;;;27.80;;
68910;SDS011;55953;51.650;-0.522;2023-02-22T06:16:37;69.40;;;26.30;;
68910;SDS011;55953;51.650;-0.522;2023-02-22T06:19:04;75.80;;;26.40;;
68910;SDS011;55953;51.650;-0.522;2023-02-22T06:21:32;77.10;;;27.70;;
68910;SDS011;55953;51.650;-0.522;2023-02-22T06:24:01;78.60;;;27.50;;
68910;SDS011;55953;51.650;-0.522;2023-02-22T06:26:31;69.70;;;26.20;;
68910;SDS011;55953;51.650;-0.522;2023-02-22T06:28:58;72.90;;;24.80;;
68910;SDS011;55953;51.650;-0.522;2023-02-22T06:31:26;75.40;;;25.00;;
68910;SDS011;55953;51.650;-0.522;2023-02-22T06:33:54;69.40;;;24.80;;
68910;SDS011;55953;51.650;-0.522;2023-02-22T06:36:22;72.20;;;23.90;;
68910;SDS011;55953;51.650;-0.522;2023-02-22T06:38:50;71.00;;;25.20;;
68910;SDS011;55953;51.650;-0.522;2023-02-22T06:41:18;74.20;;;24.50;;
68910;SDS011;55953;51.650;-0.522;2023-02-22T06:43:47;69.90;;;24.00;;
68910;SDS011;55953;51.650;-0.522;2023-02-22T06:46:15;64.80;;;22.10;;
68910;SDS011;55953;51.650;-0.522;2023-02-22T06:48:43;62.60;;;22.90;;
68910;SDS011;55953;51.650;-0.522;2023-02-22T06:51:11;58.70;;;21.80;;
68910;SDS011;55953;51.650;-0.522;2023-02-22T06:53:38;57.30;;;21.70;;
68910;SDS011;55953;51.650;-0.522;2023-02-22T06:56:06;60.80;;;21.30;;
68910;SDS011;55953;51.650;-0.522;2023-02-22T06:58:34;57.00;;;21.30;;
68910;SDS011;55953;51.650;-0.522;2023-02-22T07:01:02;59.60;;;19.90;;
68910;SDS011;55953;51.650;-0.522;2023-02-22T07:03:30;56.30;;;21.10;;
68910;SDS011;55953;51.650;-0.522;2023-02-22T07:05:58;58.40;;;20.60;;
68910;SDS011;55953;51.650;-0.522;2023-02-22T07:08:27;56.30;;;19.30;;
68910;SDS011;55953;51.650;-0.522;2023-02-22T07:10:55;60.20;;;20.80;;
68910;SDS011;55953;51.650;-0.522;2023-02-22T07:13:23;51.10;;;18.20;;
68910;SDS011;55953;51.650;-0.522;2023-02-22T07:15:51;55.30;;;19.70;;
68910;SDS011;55953;51.650;-0.522;2023-02-22T07:18:19;52.40;;;18.40;;
68910;SDS011;55953;51.650;-0.522;2023-02-22T07:20:47;54.60;;;18.50;;
68910;SDS011;55953;51.650;-0.522;2023-02-22T07:23:16;56.00;;;20.20;;
68910;SDS011;55953;51.650;-0.522;2023-02-22T07:25:44;51.90;;;19.50;;
68910;SDS011;55953;51.650;-0.522;2023-02-22T07:28:12;56.50;;;20.70;;
68910;SDS011;55953;51.650;-0.522;2023-02-22T07:30:40;52.40;;;19.20;;
68910;SDS011;55953;51.650;-0.522;2023-02-22T07:33:11;51.20;;;18.40;;
68910;SDS011;55953;51.650;-0.522;2023-02-22T07:35:45;51.40;;;18.40;;
68910;SDS011;55953;51.650;-0.522;2023-02-22T07:38:18;50.10;;;18.00;;
68910;SDS011;55953;51.650;-0.522;2023-02-22T07:40:46;51.50;;;18.70;;
68910;SDS011;55953;51.650;-0.522;2023-02-22T07:43:23;47.90;;;17.60;;
68910;SDS011;55953;51.650;-0.522;2023-02-22T07:45:55;49.60;;;18.20;;
68910;SDS011;55953;51.650;-0.522;2023-02-22T07:48:26;52.20;;;17.80;;
68910;SDS011;55953;51.650;-0.522;2023-02-22T07:50:57;47.10;;;17.20;;
68910;SDS011;55953;51.650;-0.522;2023-02-22T07:53:28;49.50;;;17.70;;
68910;SDS011;55953;51.650;-0.522;2023-02-22T07:56:01;47.80;;;17.50;;
68910;SDS011;55953;51.650;-0.522;2023-02-22T07:58:31;51.10;;;18.90;;
68910;SDS011;55953;51.650;-0.522;2023-02-22T08:00:59;42.10;;;16.20;;
68910;SDS011;55953;51.650;-0.522;2023-02-22T08:03:32;42.70;;;16.20;;
68910;SDS011;55953;51.650;-0.522;2023-02-22T08:06:05;47.30;;;17.70;;
68910;SDS011;55953;51.650;-0.522;2023-02-22T08:08:34;45.00;;;16.70;;
68910;SDS011;55953;51.650;-0.522;2023-02-22T08:11:02;45.60;;;17.30;;
68910;SDS011;55953;51.650;-0.522;2023-02-22T08:13:30;45.90;;;15.80;;
68910;SDS011;55953;51.650;-0.522;2023-02-22T08:15:59;43.60;;;16.60;;
68910;SDS011;55953;51.650;-0.522;2023-02-22T08:18:27;44.30;;;16.60;;
68910;SDS011;55953;51.650;-0.522;2023-02-22T08:20:55;37.70;;;15.10;;
68910;SDS011;55953;51.650;-0.522;2023-02-22T08:23:24;41.00;;;15.20;;
68910;SDS011;55953;51.650;-0.522;2023-02-22T08:25:54;42.90;;;15.80;;
68910;SDS011;55953;51.650;-0.522;2023-02-22T08:28:23;45.20;;;16.80;;
68910;SDS011;55953;51.650;-0.522;2023-02-22T08:30:52;43.50;;;15.90;;
68910;SDS011;55953;51.650;-0.522;2023-02-22T08:33:20;42.00;;;15.10;;
68910;SDS011;55953;51.650;-0.522;2023-02-22T08:35:48;44.30;;;15.30;;
68910;SDS011;55953;51.650;-0.522;2023-02-22T08:38:28;43.30;;;15.50;;
68910;SDS011;55953;51.650;-0.522;2023-02-22T08:40:57;37.20;;;15.40;;
68910;SDS011;55953;51.650;-0.522;2023-02-22T08:43:26;37.20;;;14.30;;
68910;SDS011;55953;51.650;-0.522;2023-02-22T08:45:55;36.70;;;14.10;;
68910;SDS011;55953;51.650;-0.522;2023-02-22T08:48:24;40.20;;;15.20;;
68910;SDS011;55953;51.650;-0.522;2023-02-22T08:50:52;39.30;;;15.20;;
68910;SDS011;55953;51.650;-0.522;2023-02-22T08:53:20;35.50;;;13.60;;
68910;SDS011;55953;51.650;-0.522;2023-02-22T08:55:48;37.10;;;15.60;;
68910;SDS011;55953;51.650;-0.522;2023-02-22T08:58:16;35.10;;;14.00;;
68910;SDS011;55953;51.650;-0.522;2023-02-22T09:00:44;37.20;;;14.40;;
68910;SDS011;55953;51.650;-0.522;2023-02-22T09:03:13;36.80;;;15.50;;
68910;SDS011;55953;51.650;-0.522;2023-02-22T09:05:42;34.20;;;14.10;;
68910;SDS011;55953;51.650;-0.522;2023-02-22T09:08:12;36.10;;;15.60;;
68910;SDS011;55953;51.650;-0.522;2023-02-22T09:10:40;34.70;;;14.20;;
68910;SDS011;55953;51.650;-0.522;2023-02-22T09:13:08;37.40;;;14.10;;
68910;SDS011;55953;51.650;-0.522;2023-02-22T09:15:36;40.50;;;15.00;;
68910;SDS011;55953;51.650;-0.522;2023-02-22T09:18:06;35.70;;;14.30;;
68910;SDS011;55953;51.650;-0.522;2023-02-22T09:20:36;34.50;;;14.30;;
68910;SDS011;55953;51.650;-0.522;2023-02-22T09:23:05;35.70;;;14.10;;
68910;SDS011;55953;51.650;-0.522;2023-02-22T09:25:36;34.60;;;14.50;;
68910;SDS011;55953;51.650;-0.522;2023-02-22T09:28:07;34.90;;;13.00;;
68910;SDS011;55953;51.650;-0.522;2023-02-22T09:30:35;35.70;;;14.00;;
68910;SDS011;55953;51.650;-0.522;2023-02-22T09:33:10;33.00;;;13.30;;
68910;SDS011;55953;51.650;-0.522;2023-02-22T09:35:43;32.50;;;13.20;;
68910;SDS011;55953;51.650;-0.522;2023-02-22T09:38:15;35.50;;;14.20;;
68910;SDS011;55953;51.650;-0.522;2023-02-22T09:40:49;37.10;;;14.60;;
68910;SDS011;55953;51.650;-0.522;2023-02-22T09:43:40;32.20;;;13.30;;
68910;SDS011;55953;51.650;-0.522;2023-02-22T09:46:27;30.40;;;12.60;;
68910;SDS011;55953;51.650;-0.522;2023-02-22T09:57:44;26.90;;;12.60;;
68910;SDS011;55953;51.650;-0.522;2023-02-22T10:00:19;28.50;;;12.40;;
68910;SDS011;55953;51.650;-0.522;2023-02-22T10:05:41;30.40;;;12.30;;
68910;SDS011;55953;51.650;-0.522;2023-02-22T10:08:15;28.90;;;12.20;;
68910;SDS011;55953;51.650;-0.522;2023-02-22T10:10:47;29.10;;;11.80;;
68910;SDS011;55953;51.650;-0.522;2023-02-22T10:13:57;28.60;;;12.40;;
68910;SDS011;55953;51.650;-0.522;2023-02-22T10:19:52;31.00;;;12.60;;
68910;SDS011;55953;51.650;-0.522;2023-02-22T10:22:51;29.60;;;13.00;;
68910;SDS011;55953;51.650;-0.522;2023-02-22T10:25:30;33.80;;;13.00;;
68910;SDS011;55953;51.650;-0.522;2023-02-22T10:28:10;25.60;;;12.30;;
68910;SDS011;55953;51.650;-0.522;2023-02-22T10:30:48;29.90;;;11.80;;
68910;SDS011;55953;51.650;-0.522;2023-02-22T10:33:29;29.70;;;12.10;;
68910;SDS011;55953;51.650;-0.522;2023-02-22T10:36:01;29.40;;;12.00;;
68910;SDS011;55953;51.650;-0.522;2023-02-22T10:38:32;24.90;;;10.30;;
68910;SDS011;55953;51.650;-0.522;2023-02-22T10:43:39;23.00;;;9.70;;
68910;SDS011;55953;51.650;-0.522;2023-02-22T10:46:14;20.60;;;8.90;;
68910;SDS011;55953;51.650;-0.522;2023-02-22T10:48:49;25.10;;;9.70;;
68910;SDS011;55953;51.650;-0.522;2023-02-22T10:51:21;22.10;;;9.60;;
68910;SDS011;55953;51.650;-0.522;2023-02-22T10:56:49;21.60;;;9.70;;
68910;SDS011;55953;51.650;-0.522;2023-02-22T10:59:38;22.60;;;9.90;;
68910;SDS011;55953;51.650;-0.522;2023-02-22T11:04:48;20.10;;;9.60;;
68910;SDS011;55953;51.650;-0.522;2023-02-22T11:09:56;18.60;;;8.70;;
68910;SDS011;55953;51.650;-0.522;2023-02-22T11:12:38;19.40;;;9.20;;
68910;SDS011;55953;51.650;-0.522;2023-02-22T11:17:53;20.50;;;9.10;;
68910;SDS011;55953;51.650;-0.522;2023-02-22T11:20:34;21.00;;;8.80;;
68910;SDS011;55953;51.650;-0.522;2023-02-22T11:23:05;21.80;;;9.00;;
68910;SDS011;55953;51.650;-0.522;2023-02-22T11:25:37;17.10;;;8.50;;
68910;SDS011;55953;51.650;-0.522;2023-02-22T11:28:20;18.40;;;8.30;;
68910;SDS011;55953;51.650;-0.522;2023-02-22T11:31:09;19.60;;;9.00;;
68910;SDS011;55953;51.650;-0.522;2023-02-22T11:33:52;19.40;;;8.90;;
68910;SDS011;55953;51.650;-0.522;2023-02-22T11:39:23;18.60;;;8.20;;
68910;SDS011;55953;51.650;-0.522;2023-02-22T11:41:55;19.00;;;9.10;;
68910;SDS011;55953;51.650;-0.522;2023-02-22T11:44:26;17.00;;;7.50;;
68910;SDS011;55953;51.650;-0.522;2023-02-22T11:46:59;14.80;;;7.10;;
68910;SDS011;55953;51.650;-0.522;2023-02-22T11:49:36;17.90;;;8.00;;
68910;SDS011;55953;51.650;-0.522;2023-02-22T11:52:23;15.40;;;7.30;;
68910;SDS011;55953;51.650;-0.522;2023-02-22T11:55:17;14.50;;;7.20;;
68910;SDS011;55953;51.650;-0.522;2023-02-22T12:15:43;15.40;;;7.50;;
68910;SDS011;55953;51.650;-0.522;2023-02-22T12:18:34;12.80;;;6.90;;
68910;SDS011;55953;51.650;-0.522;2023-02-22T12:21:25;13.80;;;7.30;;
68910;SDS011;55953;51.650;-0.522;2023-02-22T12:26:43;14.50;;;6.40;;
68910;SDS011;55953;51.650;-0.522;2023-02-22T12:32:04;14.50;;;6.90;;
68910;SDS011;55953;51.650;-0.522;2023-02-22T12:34:41;16.90;;;7.60;;
68910;SDS011;55953;51.650;-0.522;2023-02-22T12:37:19;14.60;;;7.50;;
68910;SDS011;55953;51.650;-0.522;2023-02-22T12:40:02;13.70;;;6.50;;
68910;SDS011;55953;51.650;-0.522;2023-02-22T12:42:56;12.20;;;6.00;;
68910;SDS011;55953;51.650;-0.522;2023-02-22T12:45:48;14.70;;;6.20;;
68910;SDS011;55953;51.650;-0.522;2023-02-22T12:51:27;12.20;;;5.80;;
68910;SDS011;55953;51.650;-0.522;2023-02-22T13:00:28;13.00;;;5.90;;
68910;SDS011;55953;51.650;-0.522;2023-02-22T13:06:39;14.20;;;6.50;;
68910;SDS011;55953;51.650;-0.522;2023-02-22T13:09:36;13.60;;;6.60;;
68910;SDS011;55953;51.650;-0.522;2023-02-22T13:12:52;14.50;;;6.70;;
68910;SDS011;55953;51.650;-0.522;2023-02-22T13:15:31;13.90;;;6.60;;
68910;SDS011;55953;51.650;-0.522;2023-02-22T13:21:22;13.90;;;6.80;;
68910;SDS011;55953;51.650;-0.522;2023-02-22T13:30:31;15.20;;;7.00;;
68910;SDS011;55953;51.650;-0.522;2023-02-22T13:33:33;13.30;;;6.40;;
68910;SDS011;55953;51.650;-0.522;2023-02-22T13:36:31;13.20;;;6.60;;
68910;SDS011;55953;51.650;-0.522;2023-02-22T13:48:16;17.20;;;7.70;;
68910;SDS011;55953;51.650;-0.522;2023-02-22T13:57:01;13.10;;;5.90;;
68910;SDS011;55953;51.650;-0.522;2023-02-22T13:59:34;12.50;;;6.30;;
68910;SDS011;55953;51.650;-0.522;2023-02-22T14:02:04;15.50;;;6.50;;
68910;SDS011;55953;51.650;-0.522;2023-02-22T14:04:37;12.80;;;6.30;;
68910;SDS011;55953;51.650;-0.522;2023-02-22T14:09:50;11.70;;;5.60;;
68910;SDS011;55953;51.650;-0.522;2023-02-22T14:18:04;10.30;;;4.50;;
68910;SDS011;55953;51.650;-0.522;2023-02-22T14:20:35;7.80;;;4.30;;
68910;SDS011;55953;51.650;-0.522;2023-02-22T14:23:28;9.50;;;4.90;;
68910;SDS011;55953;51.650;-0.522;2023-02-22T14:34:38;10.10;;;4.20;;
68910;SDS011;55953;51.650;-0.522;2023-02-22T14:40:05;8.60;;;4.40;;
68910;SDS011;55953;51.650;-0.522;2023-02-22T14:43:10;9.30;;;4.50;;
68910;SDS011;55953;51.650;-0.522;2023-02-22T14:45:51;8.50;;;4.80;;
68910;SDS011;55953;51.650;-0.522;2023-02-22T14:48:26;9.20;;;4.90;;
68910;SDS011;55953;51.650;-0.522;2023-02-22T14:51:06;7.90;;;4.30;;
68910;SDS011;55953;51.650;-0.522;2023-02-22T14:53:53;8.90;;;4.80;;
68910;SDS011;55953;51.650;-0.522;2023-02-22T14:56:35;8.10;;;4.50;;
68910;SDS011;55953;51.650;-0.522;2023-02-22T15:00:12;8.70;;;4.60;;
68910;SDS011;55953;51.650;-0.522;2023-02-22T15:02:50;9.30;;;4.50;;
68910;SDS011;55953;51.650;-0.522;2023-02-22T15:05:26;7.70;;;4.30;;
68910;SDS011;55953;51.650;-0.522;2023-02-22T15:08:00;8.00;;;4.30;;
68910;SDS011;55953;51.650;-0.522;2023-02-22T15:10:40;9.50;;;4.50;;
68910;SDS011;55953;51.650;-0.522;2023-02-22T15:13:24;8.30;;;4.50;;
68910;SDS011;55953;51.650;-0.522;2023-02-22T15:15:56;8.40;;;4.70;;
68910;SDS011;55953;51.650;-0.522;2023-02-22T15:18:41;7.70;;;4.20;;
68910;SDS011;55953;51.650;-0.522;2023-02-22T15:21:20;8.70;;;4.60;;
68910;SDS011;55953;51.650;-0.522;2023-02-22T15:23:55;7.10;;;4.20;;
68910;SDS011;55953;51.650;-0.522;2023-02-22T15:29:36;7.90;;;4.00;;
68910;SDS011;55953;51.650;-0.522;2023-02-22T15:32:19;7.50;;;4.60;;
68910;SDS011;55953;51.650;-0.522;2023-02-22T15:40:31;7.80;;;4.70;;
68910;SDS011;55953;51.650;-0.522;2023-02-22T15:43:02;7.50;;;4.30;;
68910;SDS011;55953;51.650;-0.522;2023-02-22T15:45:35;7.40;;;4.40;;
68910;SDS011;55953;51.650;-0.522;2023-02-22T15:48:10;6.50;;;4.00;;
68910;SDS011;55953;51.650;-0.522;2023-02-22T15:50:38;6.20;;;3.80;;
68910;SDS011;55953;51.650;-0.522;2023-02-22T15:53:25;6.20;;;3.50;;
68910;SDS011;55953;51.650;-0.522;2023-02-22T15:55:57;7.50;;;4.20;;
68910;SDS011;55953;51.650;-0.522;2023-02-22T15:58:27;6.70;;;4.00;;
68910;SDS011;55953;51.650;-0.522;2023-02-22T16:01:00;7.30;;;4.20;;
68910;SDS011;55953;51.650;-0.522;2023-02-22T16:06:30;8.40;;;5.20;;
68910;SDS011;55953;51.650;-0.522;2023-02-22T16:09:12;9.70;;;4.20;;
68910;SDS011;55953;51.650;-0.522;2023-02-22T16:12:08;7.50;;;4.20;;
68910;SDS011;55953;51.650;-0.522;2023-02-22T16:17:35;7.10;;;4.30;;
68910;SDS011;55953;51.650;-0.522;2023-02-22T16:22:40;7.10;;;4.10;;
68910;SDS011;55953;51.650;-0.522;2023-02-22T16:27:59;7.20;;;4.60;;
68910;SDS011;55953;51.650;-0.522;2023-02-22T16:30:34;6.40;;;3.90;;
68910;SDS011;55953;51.650;-0.522;2023-02-22T16:33:07;4.90;;;3.30;;
68910;SDS011;55953;51.650;-0.522;2023-02-22T16:35:40;4.00;;;2.80;;
68910;SDS011;55953;51.650;-0.522;2023-02-22T16:38:18;4.70;;;3.20;;
68910;SDS011;55953;51.650;-0.522;2023-02-22T16:40:49;5.20;;;3.10;;
68910;SDS011;55953;51.650;-0.522;2023-02-22T16:43:24;4.40;;;2.60;;
68910;SDS011;55953;51.650;-0.522;2023-02-22T16:45:56;6.00;;;2.40;;
68910;SDS011;55953;51.650;-0.522;2023-02-22T16:48:26;5.00;;;2.80;;
68910;SDS011;55953;51.650;-0.522;2023-02-22T16:51:05;4.30;;;2.80;;
68910;SDS011;55953;51.650;-0.522;2023-02-22T16:53:35;5.50;;;2.70;;
68910;SDS011;55953;51.650;-0.522;2023-02-22T16:56:08;5.70;;;3.00;;
68910;SDS011;55953;51.650;-0.522;2023-02-22T16:58:39;4.20;;;2.50;;
68910;SDS011;55953;51.650;-0.522;2023-02-22T17:01:08;5.00;;;3.30;;
68910;SDS011;55953;51.650;-0.522;2023-02-22T17:03:36;4.40;;;2.40;;
68910;SDS011;55953;51.650;-0.522;2023-02-22T17:06:05;4.90;;;2.70;;
68910;SDS011;55953;51.650;-0.522;2023-02-22T17:08:33;6.20;;;3.00;;
68910;SDS011;55953;51.650;-0.522;2023-02-22T17:11:02;5.30;;;2.90;;
68910;SDS011;55953;51.650;-0.522;2023-02-22T17:13:30;4.70;;;3.10;;
68910;SDS011;55953;51.650;-0.522;2023-02-22T17:15:58;4.30;;;2.90;;
68910;SDS011;55953;51.650;-0.522;2023-02-22T17:18:27;3.50;;;2.40;;
68910;SDS011;55953;51.650;-0.522;2023-02-22T17:21:00;5.90;;;2.90;;
68910;SDS011;55953;51.650;-0.522;2023-02-22T17:23:29;5.60;;;2.70;;
68910;SDS011;55953;51.650;-0.522;2023-02-22T17:26:00;5.80;;;3.00;;
68910;SDS011;55953;51.650;-0.522;2023-02-22T17:28:31;6.50;;;3.50;;
68910;SDS011;55953;51.650;-0.522;2023-02-22T17:30:59;6.20;;;3.40;;
68910;SDS011;55953;51.650;-0.522;2023-02-22T17:33:31;6.50;;;3.70;;
68910;SDS011;55953;51.650;-0.522;2023-02-22T17:36:02;6.90;;;3.70;;